Time;durP1;ratioP1;P1;durP2;ratioP2;P2;SDS_P1;SDS_P2;PMS_P1;PMS_P2;Temp;Humidity;BMP_temperature;BMP_pressure;BME280_temperature;BME280_humidity;BME280_pressure;Samples;Min_cycle;Max_cycle;Signal;HPM_P1;HPM_P2
2023/08/13 00:01:59;;;;;;;15.57;5.95;;;15.50;99.90;;;;;;4959515;28;20094;-79
2023/08/13 00:04:27;;;;;;;15.50;6.28;;;15.50;99.90;;;;;;4964310;28;20042;-79
2023/08/13 00:06:56;;;;;;;15.80;5.97;;;15.50;99.90;;;;;;4953762;28;20043;-80
2023/08/13 00:09:22;;;;;;;11.10;5.00;;;15.60;99.90;;;;;;4944409;28;20039;-80
2023/08/13 00:11:51;;;;;;;14.07;6.18;;;15.60;99.90;;;;;;4935342;28;20485;-79
2023/08/13 00:14:17;;;;;;;15.20;5.60;;;15.60;99.90;;;;;;4945545;28;20465;-79
2023/08/13 00:16:47;;;;;;;13.75;5.53;;;15.70;99.90;;;;;;4950506;28;20057;-80
2023/08/13 00:19:16;;;;;;;17.92;5.45;;;15.70;99.90;;;;;;4963999;28;20050;-79
2023/08/13 00:21:41;;;;;;;10.55;4.43;;;15.70;99.90;;;;;;4947025;28;20055;-80
2023/08/13 00:24:13;;;;;;;12.45;5.10;;;15.80;99.90;;;;;;4929220;28;20097;-79
2023/08/13 00:26:43;;;;;;;14.35;4.53;;;15.80;99.90;;;;;;4944661;28;20047;-80
2023/08/13 00:29:09;;;;;;;12.40;4.35;;;15.80;99.90;;;;;;4953951;28;20093;-80
2023/08/13 00:31:38;;;;;;;14.48;5.22;;;15.80;99.90;;;;;;4964890;28;20062;-80
2023/08/13 00:34:09;;;;;;;13.25;5.15;;;15.80;99.90;;;;;;4928329;28;20466;-79
2023/08/13 00:36:37;;;;;;;18.05;5.47;;;15.80;99.90;;;;;;4944288;28;20137;-79
2023/08/13 00:39:03;;;;;;;18.27;5.60;;;15.80;99.90;;;;;;4945030;28;20101;-80
2023/08/13 00:41:35;;;;;;;12.48;4.82;;;15.70;99.90;;;;;;4960075;28;20105;-79
2023/08/13 00:44:03;;;;;;;14.15;5.20;;;15.70;99.90;;;;;;4961810;28;20046;-79
2023/08/13 00:46:32;;;;;;;15.63;5.22;;;15.60;99.90;;;;;;4963910;28;20050;-79
2023/08/13 00:49:01;;;;;;;16.67;5.55;;;15.60;99.90;;;;;;4952746;28;20050;-79
2023/08/13 00:51:27;;;;;;;15.77;5.28;;;15.50;99.90;;;;;;4944519;28;20039;-79
2023/08/13 00:53:56;;;;;;;17.42;5.70;;;15.50;99.90;;;;;;4944843;28;20410;-80
2023/08/13 00:56:23;;;;;;;17.95;6.35;;;15.50;99.90;;;;;;4944341;28;20081;-79
2023/08/13 00:58:50;;;;;;;14.02;5.07;;;15.50;99.90;;;;;;4951381;28;20042;-79
2023/08/13 01:01:21;;;;;;;13.98;5.38;;;15.40;99.90;;;;;;4953193;28;20402;-80
2023/08/13 01:03:50;;;;;;;17.25;5.90;;;15.40;99.90;;;;;;4943566;28;20051;-79
2023/08/13 01:06:22;;;;;;;16.17;5.70;;;15.40;99.90;;;;;;4960608;28;20039;-80
2023/08/13 01:09:12;;;;;;;14.85;5.88;;;15.40;99.90;;;;;;4966053;28;20035;-80
2023/08/13 01:11:58;;;;;;;18.50;6.15;;;15.40;99.90;;;;;;4958853;28;20102;-79
2023/08/13 01:14:41;;;;;;;15.85;5.93;;;15.30;99.90;;;;;;4960983;28;20049;-79
2023/08/13 01:17:07;;;;;;;14.63;5.85;;;15.30;99.90;;;;;;4943893;28;20074;-80
2023/08/13 01:19:35;;;;;;;16.92;5.82;;;15.20;99.90;;;;;;4942587;28;20525;-79
2023/08/13 01:22:03;;;;;;;16.52;5.70;;;15.20;99.90;;;;;;4934789;28;20061;-80
2023/08/13 01:24:29;;;;;;;16.00;6.10;;;15.20;99.90;;;;;;4963589;28;20061;-79
2023/08/13 01:27:09;;;;;;;15.70;5.82;;;15.10;99.90;;;;;;4954729;28;20043;-79
2023/08/13 01:29:59;;;;;;;14.50;6.22;;;15.20;99.90;;;;;;4950122;28;20287;-79
2023/08/13 01:32:39;;;;;;;17.05;6.40;;;15.10;99.90;;;;;;4944696;28;20039;-79
2023/08/13 01:35:09;;;;;;;17.02;6.63;;;15.20;99.90;;;;;;4950604;28;20043;-79
2023/08/13 01:37:36;;;;;;;17.70;6.07;;;15.10;99.90;;;;;;4979619;28;20101;-79
2023/08/13 01:40:03;;;;;;;17.95;6.30;;;15.10;99.90;;;;;;4951124;28;20039;-79
2023/08/13 01:42:33;;;;;;;19.00;6.22;;;15.10;99.90;;;;;;4953714;28;20043;-79
2023/08/13 01:44:58;;;;;;;18.23;6.65;;;15.20;99.90;;;;;;4953053;28;20054;-79
2023/08/13 01:47:24;;;;;;;18.25;6.60;;;15.20;99.90;;;;;;4950364;28;20049;-79
2023/08/13 01:49:50;;;;;;;16.77;6.63;;;15.20;99.90;;;;;;4965794;28;20038;-78
2023/08/13 01:52:20;;;;;;;17.30;7.03;;;15.20;99.90;;;;;;4963148;28;20497;-78
2023/08/13 01:54:46;;;;;;;16.80;6.57;;;15.20;99.90;;;;;;4933503;28;20042;-78
2023/08/13 01:57:12;;;;;;;18.60;6.20;;;15.20;99.90;;;;;;4940962;28;20379;-78
2023/08/13 01:59:38;;;;;;;15.95;6.75;;;15.20;99.90;;;;;;4940091;28;20498;-80
2023/08/13 02:02:04;;;;;;;19.85;6.38;;;15.20;99.90;;;;;;4942247;28;20050;-78
2023/08/13 02:04:30;;;;;;;18.73;7.40;;;15.20;99.90;;;;;;4957271;28;20655;-78
2023/08/13 02:06:55;;;;;;;17.23;6.95;;;15.10;99.90;;;;;;4941142;28;20051;-80
2023/08/13 02:09:21;;;;;;;17.52;6.97;;;15.10;99.90;;;;;;4940784;28;20129;-78
2023/08/13 02:11:47;;;;;;;15.32;6.50;;;15.10;99.90;;;;;;4940628;28;20041;-78
2023/08/13 02:14:13;;;;;;;16.20;6.57;;;15.10;99.90;;;;;;4957836;28;20045;-78
2023/08/13 02:16:39;;;;;;;18.15;7.10;;;15.10;99.90;;;;;;4970537;28;20543;-79
2023/08/13 02:19:04;;;;;;;15.50;7.53;;;15.10;99.90;;;;;;4949999;28;20084;-79
2023/08/13 02:21:30;;;;;;;16.20;7.10;;;15.00;99.90;;;;;;4940741;28;20497;-81
2023/08/13 02:23:56;;;;;;;21.83;7.80;;;15.00;99.90;;;;;;4941149;28;20043;-78
2023/08/13 02:26:22;;;;;;;14.20;7.25;;;15.00;99.90;;;;;;4942651;28;20480;-78
2023/08/13 02:28:48;;;;;;;16.85;7.40;;;15.00;99.90;;;;;;4940140;28;20054;-78
2023/08/13 02:31:14;;;;;;;15.77;7.15;;;15.00;99.90;;;;;;4938557;28;20038;-79
2023/08/13 02:33:43;;;;;;;17.50;7.57;;;14.90;99.90;;;;;;4941407;28;20066;-79
2023/08/13 02:36:09;;;;;;;16.48;7.38;;;14.90;99.90;;;;;;4939849;28;20540;-78
2023/08/13 02:38:35;;;;;;;15.40;7.40;;;14.80;99.90;;;;;;4960913;28;20068;-78
2023/08/13 02:41:01;;;;;;;17.15;8.40;;;14.80;99.90;;;;;;4950770;28;20042;-78
2023/08/13 02:43:31;;;;;;;17.25;7.30;;;14.80;99.90;;;;;;4940183;28;20045;-78
2023/08/13 02:45:57;;;;;;;18.63;8.15;;;14.80;99.90;;;;;;4940701;28;20137;-81
2023/08/13 02:48:23;;;;;;;18.25;7.43;;;14.80;99.90;;;;;;4940461;28;20150;-78
2023/08/13 02:50:49;;;;;;;20.02;7.25;;;14.70;99.90;;;;;;4940581;28;20081;-78
2023/08/13 02:53:14;;;;;;;16.08;6.88;;;14.70;99.90;;;;;;4958364;28;20042;-78
2023/08/13 02:55:40;;;;;;;19.30;7.90;;;14.70;99.90;;;;;;4937043;28;20135;-78
2023/08/13 02:58:06;;;;;;;16.55;7.35;;;14.70;99.90;;;;;;4954039;28;20043;-79
2023/08/13 03:00:32;;;;;;;18.35;7.35;;;14.70;99.90;;;;;;4940443;28;20043;-78
2023/08/13 03:02:58;;;;;;;18.63;8.05;;;14.70;99.90;;;;;;4939946;28;20074;-78
2023/08/13 03:05:24;;;;;;;21.67;8.55;;;14.70;99.90;;;;;;4940623;28;20045;-80
2023/08/13 03:07:50;;;;;;;16.00;6.63;;;14.60;99.90;;;;;;4937843;28;20405;-80
2023/08/13 03:10:18;;;;;;;18.42;7.78;;;14.60;99.90;;;;;;4938467;28;20084;-78
2023/08/13 03:12:44;;;;;;;18.15;6.85;;;14.60;99.90;;;;;;4940183;28;20401;-79
2023/08/13 03:15:13;;;;;;;16.95;7.00;;;14.60;99.90;;;;;;4940528;28;20042;-79
2023/08/13 03:17:39;;;;;;;19.17;7.30;;;14.60;99.90;;;;;;4941612;28;20129;-79
2023/08/13 03:20:05;;;;;;;15.52;7.07;;;14.60;99.90;;;;;;4939910;28;20445;-79
2023/08/13 03:22:31;;;;;;;19.17;7.70;;;14.60;99.90;;;;;;4937426;28;20058;-79
2023/08/13 03:24:57;;;;;;;16.23;7.25;;;14.50;99.90;;;;;;4939927;28;20509;-78
2023/08/13 03:27:22;;;;;;;21.92;8.20;;;14.50;99.90;;;;;;4939492;28;20042;-79
2023/08/13 03:29:48;;;;;;;17.77;7.57;;;14.50;99.90;;;;;;4939859;28;20038;-79
2023/08/13 03:32:16;;;;;;;20.17;8.30;;;14.50;99.90;;;;;;4947156;28;20038;-78
2023/08/13 03:34:42;;;;;;;19.25;7.78;;;14.50;99.90;;;;;;4938975;28;20174;-80
2023/08/13 03:37:08;;;;;;;17.30;8.05;;;14.40;99.90;;;;;;4936899;28;20488;-78
2023/08/13 03:39:34;;;;;;;15.23;7.70;;;14.40;99.90;;;;;;4949346;28;20053;-78
2023/08/13 03:42:00;;;;;;;17.30;8.32;;;14.40;99.90;;;;;;4939433;28;20135;-78
2023/08/13 03:44:26;;;;;;;16.05;8.23;;;14.30;99.90;;;;;;4937368;28;20051;-79
2023/08/13 03:46:51;;;;;;;17.23;8.45;;;14.30;99.90;;;;;;4954774;28;20045;-78
2023/08/13 03:49:17;;;;;;;14.60;7.70;;;14.30;99.90;;;;;;4947819;28;20043;-78
2023/08/13 03:51:43;;;;;;;19.98;8.13;;;14.30;99.90;;;;;;4946839;28;20066;-79
2023/08/13 03:54:09;;;;;;;21.20;9.25;;;14.20;99.90;;;;;;4930718;28;20090;-79
2023/08/13 03:56:35;;;;;;;16.25;8.73;;;14.30;99.90;;;;;;4934539;29;20050;-79
2023/08/13 03:59:01;;;;;;;19.05;8.73;;;14.20;99.90;;;;;;4947944;28;20114;-78
2023/08/13 04:01:29;;;;;;;19.60;9.68;;;14.20;99.90;;;;;;4946606;28;20126;-78
2023/08/13 04:03:55;;;;;;;20.30;8.80;;;14.20;99.90;;;;;;4938714;28;20537;-78
2023/08/13 04:06:20;;;;;;;16.70;8.52;;;14.20;99.90;;;;;;4955005;28;20082;-78
2023/08/13 04:08:47;;;;;;;16.90;8.88;;;14.20;99.90;;;;;;4935657;28;20140;-78
2023/08/13 04:11:13;;;;;;;18.67;9.55;;;14.20;99.90;;;;;;4924113;28;20093;-78
2023/08/13 04:13:39;;;;;;;15.75;8.85;;;14.30;99.90;;;;;;4944413;28;20042;-78
2023/08/13 04:16:04;;;;;;;16.90;8.60;;;14.20;99.90;;;;;;4958599;28;20520;-79
2023/08/13 04:18:30;;;;;;;19.38;10.45;;;14.30;99.90;;;;;;4945125;28;20039;-79
2023/08/13 04:20:56;;;;;;;18.02;8.75;;;14.30;99.90;;;;;;4951893;28;20074;-79
2023/08/13 04:23:22;;;;;;;16.23;8.70;;;14.30;99.90;;;;;;4949525;28;20050;-79
2023/08/13 04:25:48;;;;;;;18.67;8.55;;;14.30;99.90;;;;;;4958289;28;20054;-79
2023/08/13 04:28:14;;;;;;;14.55;8.02;;;14.30;99.90;;;;;;4954679;28;20043;-78
2023/08/13 04:30:40;;;;;;;16.33;8.80;;;14.30;99.90;;;;;;4938399;28;20045;-78
2023/08/13 04:33:05;;;;;;;20.52;10.45;;;14.30;99.90;;;;;;4940649;28;20089;-78
2023/08/13 04:35:31;;;;;;;16.75;8.20;;;14.40;99.90;;;;;;4957922;28;20046;-78
2023/08/13 04:37:57;;;;;;;18.33;7.78;;;14.40;99.90;;;;;;4958331;28;20092;-78
2023/08/13 04:40:28;;;;;;;18.23;8.80;;;14.40;99.90;;;;;;4961910;28;20463;-78
2023/08/13 04:42:54;;;;;;;17.52;9.40;;;14.50;99.90;;;;;;4938026;28;20544;-78
2023/08/13 04:45:20;;;;;;;18.80;10.00;;;14.50;99.90;;;;;;4942676;28;20070;-78
2023/08/13 04:47:46;;;;;;;20.13;9.15;;;14.50;99.90;;;;;;4933741;28;20042;-78
2023/08/13 04:50:13;;;;;;;21.75;9.55;;;14.50;99.90;;;;;;4972945;28;20034;-78
2023/08/13 04:52:39;;;;;;;21.40;9.43;;;14.50;99.90;;;;;;4973547;28;20049;-79
2023/08/13 04:55:05;;;;;;;20.67;10.10;;;14.60;99.90;;;;;;4942509;28;20405;-80
2023/08/13 04:57:33;;;;;;;18.58;8.93;;;14.60;99.90;;;;;;4941576;28;20045;-78
2023/08/13 05:00:00;;;;;;;18.88;8.52;;;14.60;99.90;;;;;;4940887;28;20051;-78
2023/08/13 05:02:28;;;;;;;16.83;9.57;;;14.60;99.90;;;;;;4945758;28;20038;-78
2023/08/13 05:04:54;;;;;;;14.18;8.60;;;14.70;99.90;;;;;;4942933;28;20049;-78
2023/08/13 05:07:20;;;;;;;17.00;9.48;;;14.60;99.90;;;;;;4960898;28;20475;-78
2023/08/13 05:09:46;;;;;;;19.30;9.93;;;14.70;99.90;;;;;;4961536;28;20496;-78
2023/08/13 05:12:12;;;;;;;16.33;8.95;;;14.80;99.90;;;;;;4951442;28;20042;-78
2023/08/13 05:14:40;;;;;;;15.35;8.63;;;14.70;99.90;;;;;;4941517;28;20402;-78
2023/08/13 05:17:18;;;;;;;17.58;8.48;;;14.80;99.90;;;;;;4941947;28;20090;-78
2023/08/13 05:19:44;;;;;;;15.95;8.52;;;14.90;99.90;;;;;;4941787;28;20042;-78
2023/08/13 05:22:13;;;;;;;15.40;7.57;;;15.00;99.90;;;;;;4939441;29;20039;-78
2023/08/13 05:24:39;;;;;;;14.27;7.20;;;15.10;99.90;;;;;;4936841;28;20078;-78
2023/08/13 05:27:05;;;;;;;16.15;7.70;;;15.10;99.90;;;;;;4941712;28;20078;-78
2023/08/13 05:29:33;;;;;;;20.60;8.65;;;15.20;99.90;;;;;;4941730;28;20046;-78
2023/08/13 05:31:59;;;;;;;15.50;7.45;;;15.20;99.90;;;;;;4942098;28;20047;-78
2023/08/13 05:34:25;;;;;;;15.90;7.03;;;15.20;99.90;;;;;;4941915;28;20046;-78
2023/08/13 05:36:53;;;;;;;14.77;7.20;;;15.30;99.90;;;;;;4942251;28;20042;-78
2023/08/13 05:39:19;;;;;;;16.45;7.53;;;15.40;99.90;;;;;;4939566;28;20569;-78
2023/08/13 05:41:48;;;;;;;14.48;7.50;;;15.40;99.90;;;;;;4964215;28;20043;-80
2023/08/13 05:44:14;;;;;;;18.45;7.97;;;15.40;99.90;;;;;;4937944;29;20051;-79
2023/08/13 05:46:40;;;;;;;13.95;7.35;;;15.50;99.90;;;;;;4922681;29;20043;-78
2023/08/13 05:49:05;;;;;;;16.52;7.35;;;15.50;99.90;;;;;;4928982;28;20046;-79
2023/08/13 05:51:31;;;;;;;15.20;7.85;;;15.50;99.90;;;;;;4937310;28;20031;-79
2023/08/13 05:53:57;;;;;;;13.70;7.13;;;15.50;99.90;;;;;;4940181;28;20058;-78
2023/08/13 05:56:23;;;;;;;12.35;7.10;;;15.50;99.90;;;;;;4959498;28;20409;-78
2023/08/13 05:58:51;;;;;;;14.80;7.82;;;15.50;99.90;;;;;;4960397;28;20042;-78
2023/08/13 06:01:17;;;;;;;15.55;7.28;;;15.50;99.90;;;;;;4940963;28;20425;-78
2023/08/13 06:03:43;;;;;;;16.25;7.32;;;15.50;99.90;;;;;;4950493;28;20038;-78
2023/08/13 06:06:09;;;;;;;15.90;7.80;;;15.50;99.90;;;;;;4941417;28;20489;-78
2023/08/13 06:08:35;;;;;;;14.07;8.00;;;15.60;99.90;;;;;;4970231;28;20077;-81
2023/08/13 06:11:01;;;;;;;15.55;7.88;;;15.70;99.90;;;;;;4944764;28;20074;-78
2023/08/13 06:13:27;;;;;;;16.63;6.90;;;15.80;99.90;;;;;;4940988;28;20070;-80
2023/08/13 06:15:52;;;;;;;16.17;7.32;;;15.90;99.90;;;;;;4956885;28;20042;-78
2023/08/13 06:18:21;;;;;;;14.90;6.75;;;16.00;99.90;;;;;;4942790;28;20046;-78
2023/08/13 06:20:46;;;;;;;13.25;7.20;;;16.10;99.90;;;;;;4947593;28;20073;-78
2023/08/13 06:23:14;;;;;;;15.38;6.75;;;16.20;99.90;;;;;;4942370;28;20505;-78
2023/08/13 06:25:40;;;;;;;16.17;7.13;;;16.30;99.90;;;;;;4940961;28;20042;-78
2023/08/13 06:28:06;;;;;;;15.57;7.22;;;16.30;99.90;;;;;;4941244;28;20045;-81
2023/08/13 06:30:35;;;;;;;15.82;6.93;;;16.40;99.90;;;;;;4948031;28;20034;-77
2023/08/13 06:33:03;;;;;;;17.70;7.60;;;16.60;99.90;;;;;;4951369;28;20101;-77
2023/08/13 06:35:29;;;;;;;13.93;6.38;;;16.80;99.90;;;;;;4937974;28;20039;-80
2023/08/13 06:37:55;;;;;;;14.50;6.72;;;16.90;99.90;;;;;;4941439;28;20509;-76
2023/08/13 06:40:20;;;;;;;14.30;6.82;;;17.00;99.90;;;;;;4956131;28;20042;-74
2023/08/13 06:42:46;;;;;;;16.10;7.10;;;17.00;99.90;;;;;;4935073;28;20043;-76
2023/08/13 06:45:12;;;;;;;15.55;5.82;;;17.00;99.90;;;;;;4947730;28;20856;-76
2023/08/13 06:47:38;;;;;;;12.75;5.68;;;17.00;99.90;;;;;;4950023;28;20094;-76
2023/08/13 06:50:05;;;;;;;13.07;6.32;;;17.10;99.90;;;;;;4958281;28;20047;-77
2023/08/13 06:52:30;;;;;;;12.82;6.22;;;17.10;99.90;;;;;;4940652;28;20031;-76
2023/08/13 06:54:56;;;;;;;11.57;5.80;;;17.10;99.90;;;;;;4954214;28;20034;-76
2023/08/13 06:57:22;;;;;;;14.65;6.13;;;17.20;99.90;;;;;;4935227;28;20049;-77
2023/08/13 06:59:48;;;;;;;10.77;5.30;;;17.20;99.90;;;;;;4951410;28;20042;-76
2023/08/13 07:02:14;;;;;;;18.85;5.88;;;17.20;99.90;;;;;;4957263;28;20039;-76
2023/08/13 07:04:39;;;;;;;16.08;7.07;;;17.30;99.90;;;;;;4955711;28;20126;-76
2023/08/13 07:07:06;;;;;;;15.20;6.10;;;17.20;99.90;;;;;;4952802;28;20074;-76
2023/08/13 07:09:33;;;;;;;11.77;6.30;;;17.40;99.90;;;;;;4939977;28;20027;-76
2023/08/13 07:12:05;;;;;;;15.70;5.63;;;17.40;99.90;;;;;;4937567;28;20035;-76
2023/08/13 07:14:31;;;;;;;13.80;6.60;;;17.40;99.90;;;;;;4934930;28;20035;-75
2023/08/13 07:17:05;;;;;;;14.23;5.95;;;17.50;99.90;;;;;;4941224;28;20572;-74
2023/08/13 07:19:32;;;;;;;12.13;5.72;;;17.60;99.90;;;;;;4945706;28;20125;-76
2023/08/13 07:21:58;;;;;;;12.10;5.50;;;17.80;99.90;;;;;;4968590;28;20039;-76
2023/08/13 07:24:24;;;;;;;12.55;5.10;;;17.80;99.90;;;;;;4952592;28;20117;-76
2023/08/13 07:26:50;;;;;;;14.63;5.20;;;17.90;99.90;;;;;;4937583;28;20413;-76
2023/08/13 07:29:16;;;;;;;11.95;4.70;;;17.90;99.90;;;;;;4958099;28;20089;-77
2023/08/13 07:31:41;;;;;;;12.98;4.50;;;18.00;99.90;;;;;;4960676;28;20050;-76
2023/08/13 07:34:07;;;;;;;12.75;4.80;;;18.00;99.90;;;;;;4975419;28;20121;-76
2023/08/13 07:36:33;;;;;;;11.50;5.45;;;17.90;99.90;;;;;;4962599;28;20039;-77
2023/08/13 07:39:03;;;;;;;12.00;5.25;;;17.90;99.90;;;;;;4951000;28;20046;-76
2023/08/13 07:41:33;;;;;;;12.20;5.30;;;18.00;99.90;;;;;;4961729;28;20035;-76
2023/08/13 07:43:59;;;;;;;11.48;4.88;;;18.00;99.90;;;;;;4940123;28;20043;-76
2023/08/13 07:46:25;;;;;;;12.63;5.43;;;18.10;99.90;;;;;;4957949;28;20508;-77
2023/08/13 07:48:51;;;;;;;13.13;5.28;;;18.20;99.90;;;;;;4940414;28;20398;-76
2023/08/13 07:51:16;;;;;;;12.40;5.53;;;18.30;99.90;;;;;;4954147;28;20062;-76
2023/08/13 07:53:42;;;;;;;11.48;5.03;;;18.30;99.90;;;;;;4939913;28;20035;-77
2023/08/13 07:56:09;;;;;;;12.20;4.95;;;18.40;99.90;;;;;;4940421;28;20043;-77
2023/08/13 07:58:37;;;;;;;12.50;5.03;;;18.50;99.90;;;;;;4939714;28;20404;-77
2023/08/13 08:01:03;;;;;;;10.50;4.47;;;18.60;99.90;;;;;;4953045;28;20046;-77
2023/08/13 08:03:28;;;;;;;11.10;4.47;;;18.70;99.90;;;;;;4939893;28;20046;-76
2023/08/13 08:05:54;;;;;;;9.00;3.40;;;18.80;99.90;;;;;;4939394;28;20457;-77
2023/08/13 08:08:20;;;;;;;10.38;3.83;;;18.90;99.90;;;;;;4951929;28;20122;-77
2023/08/13 08:10:46;;;;;;;12.80;4.35;;;19.00;99.90;;;;;;4962388;28;20046;-77
2023/08/13 08:13:12;;;;;;;8.07;3.40;;;19.10;99.90;;;;;;4978834;28;20038;-77
2023/08/13 08:15:41;;;;;;;15.13;4.78;;;19.10;99.90;;;;;;4954761;28;20109;-77
2023/08/13 08:18:07;;;;;;;9.88;3.67;;;19.20;99.90;;;;;;4959091;28;20565;-77
2023/08/13 08:20:35;;;;;;;12.10;3.90;;;19.20;99.90;;;;;;4962442;28;20097;-77
2023/08/13 08:23:00;;;;;;;9.82;3.38;;;19.30;99.90;;;;;;4962231;28;20050;-77
2023/08/13 08:25:26;;;;;;;9.50;3.67;;;19.40;99.90;;;;;;4962462;28;20038;-77
2023/08/13 08:27:52;;;;;;;10.35;3.35;;;19.60;99.90;;;;;;4955741;28;20113;-77
2023/08/13 08:30:18;;;;;;;7.45;2.90;;;20.40;99.90;;;;;;4977829;28;20408;-77
2023/08/13 08:32:49;;;;;;;7.28;2.72;;;21.20;99.90;;;;;;4962733;28;20070;-77
2023/08/13 08:35:15;;;;;;;7.53;2.47;;;22.10;99.90;;;;;;4978363;28;20038;-77
2023/08/13 08:37:41;;;;;;;7.22;2.60;;;22.70;99.90;;;;;;4962099;28;20412;-78
2023/08/13 08:40:09;;;;;;;6.80;2.45;;;23.30;99.90;;;;;;4962301;28;20101;-77
2023/08/13 08:42:44;;;;;;;6.75;2.47;;;23.80;99.90;;;;;;4941405;28;20178;-78
2023/08/13 08:45:16;;;;;;;6.45;2.42;;;24.20;99.90;;;;;;4976828;28;20268;-78
2023/08/13 08:47:45;;;;;;;8.93;2.88;;;24.60;99.90;;;;;;4939211;28;20113;-78
2023/08/13 08:50:14;;;;;;;8.60;2.50;;;25.20;99.90;;;;;;4940720;28;20081;-78
2023/08/13 08:52:43;;;;;;;6.80;2.20;;;25.50;99.90;;;;;;4944750;28;20030;-79
2023/08/13 08:55:14;;;;;;;6.30;2.20;;;25.80;99.90;;;;;;4937228;28;20046;-80
2023/08/13 08:57:42;;;;;;;5.22;2.05;;;25.90;99.90;;;;;;4941955;28;20125;-79
2023/08/13 09:00:09;;;;;;;6.60;1.95;;;26.10;99.90;;;;;;4958702;28;20081;-79
2023/08/13 09:02:39;;;;;;;10.05;2.65;;;26.00;99.90;;;;;;4946864;28;20409;-79
2023/08/13 09:05:09;;;;;;;6.40;2.30;;;25.90;99.90;;;;;;4940580;28;20039;-79
2023/08/13 09:07:42;;;;;;;6.70;2.38;;;26.10;99.90;;;;;;4943662;28;20043;-79
2023/08/13 09:10:19;;;;;;;6.95;1.92;;;26.50;99.90;;;;;;4957511;28;20093;-78
2023/08/13 09:12:44;;;;;;;7.35;2.10;;;26.70;99.90;;;;;;4948511;29;20078;-79
2023/08/13 09:15:12;;;;;;;5.95;2.00;;;26.80;99.90;;;;;;4947946;28;20081;-79
2023/08/13 09:17:45;;;;;;;6.57;1.90;;;27.00;99.90;;;;;;4954621;28;20051;-79
2023/08/13 09:20:28;;;;;;;;;;;27.00;99.90;;;;;;4942289;28;20039;-79
2023/08/13 09:23:04;;;;;;;8.18;2.13;;;27.10;99.90;;;;;;4941829;28;20437;-79
2023/08/13 09:26:02;;;;;;;4.88;1.50;;;27.30;99.90;;;;;;4970072;28;20042;-79
2023/08/13 09:28:43;;;;;;;5.73;1.63;;;27.20;99.90;;;;;;4962981;28;20042;-78
2023/08/13 09:31:25;;;;;;;4.93;1.63;;;27.00;99.90;;;;;;4963332;28;20493;-79
2023/08/13 09:34:10;;;;;;;7.15;1.70;;;26.60;99.90;;;;;;4984932;28;20030;-79
2023/08/13 09:36:54;;;;;;;6.15;1.80;;;26.40;99.90;;;;;;4962024;28;20050;-79
2023/08/13 09:39:36;;;;;;;3.70;1.20;;;26.10;99.90;;;;;;4976182;28;20046;-78
2023/08/13 09:42:22;;;;;;;5.77;1.80;;;26.30;99.90;;;;;;4962081;28;20034;-79
2023/08/13 09:45:10;;;;;;;7.57;1.70;;;26.50;99.90;;;;;;4975086;28;20050;-78
2023/08/13 09:47:48;;;;;;;5.28;1.58;;;26.40;99.90;;;;;;4924288;28;20151;-79
2023/08/13 09:50:23;;;;;;;3.85;1.40;;;26.00;99.90;;;;;;4976416;28;20138;-79
2023/08/13 09:52:49;;;;;;;4.68;1.38;;;25.50;99.90;;;;;;4961812;28;20448;-78
2023/08/13 09:55:23;;;;;;;4.88;1.20;;;25.10;99.90;;;;;;4961877;28;20050;-79
2023/08/13 09:58:01;;;;;;;4.00;1.60;;;25.00;99.90;;;;;;4977821;28;20070;-79
2023/08/13 10:00:37;;;;;;;5.53;1.10;;;25.20;99.90;;;;;;4955375;28;20049;-79
2023/08/13 10:03:09;;;;;;;3.75;1.38;;;25.40;99.90;;;;;;4975327;28;20408;-78
2023/08/13 10:06:13;;;;;;;3.85;1.20;;;25.50;99.90;;;;;;4978949;28;20039;-79
2023/08/13 10:09:14;;;;;;;4.70;1.20;;;25.50;99.90;;;;;;4960986;28;20089;-79
2023/08/13 10:11:51;;;;;;;3.83;1.45;;;25.60;99.90;;;;;;4973731;28;20093;-79
2023/08/13 10:14:45;;;;;;;4.38;1.30;;;25.50;99.90;;;;;;4958203;28;20045;-78
2023/08/13 10:17:18;;;;;;;3.83;1.38;;;25.10;99.90;;;;;;4961647;28;20038;-79
2023/08/13 10:20:16;;;;;;;4.72;1.38;;;24.70;99.90;;;;;;4961656;28;20084;-78
2023/08/13 10:22:56;;;;;;;3.65;1.05;;;24.30;99.90;;;;;;4966483;28;20038;-78
2023/08/13 10:25:39;;;;;;;2.80;1.10;;;23.70;99.90;;;;;;4971138;28;20046;-78
2023/08/13 10:28:45;;;;;;;2.45;1.02;;;23.30;99.90;;;;;;4965339;28;20470;-78
2023/08/13 10:31:27;;;;;;;4.90;1.45;;;23.30;99.90;;;;;;4947696;28;20054;-78
2023/08/13 10:34:38;;;;;;;4.63;1.80;;;23.60;99.90;;;;;;4978648;28;20412;-78
2023/08/13 10:37:34;;;;;;;4.53;1.50;;;24.20;99.90;;;;;;4957327;28;20053;-78
2023/08/13 10:40:12;;;;;;;5.45;1.25;;;24.50;99.90;;;;;;4959739;28;20137;-79
2023/08/13 10:42:46;;;;;;;4.93;1.52;;;24.90;99.90;;;;;;4961455;28;20053;-78
2023/08/13 10:45:24;;;;;;;4.40;1.40;;;25.00;99.90;;;;;;4957866;28;20038;-78
2023/08/13 10:48:00;;;;;;;4.93;1.40;;;25.10;99.90;;;;;;4978167;28;20074;-78
2023/08/13 10:50:46;;;;;;;4.15;1.40;;;25.00;99.90;;;;;;4975094;28;20117;-78
2023/08/13 10:53:33;;;;;;;5.05;1.83;;;24.80;99.90;;;;;;4961490;28;20053;-78
2023/08/13 10:56:17;;;;;;;5.47;1.80;;;24.90;99.90;;;;;;4961839;28;20489;-78
2023/08/13 10:59:07;;;;;;;6.55;1.63;;;25.20;99.90;;;;;;4958261;28;20042;-78
2023/08/13 11:01:56;;;;;;;4.90;1.80;;;25.20;99.90;;;;;;4954805;29;20046;-78
2023/08/13 11:04:25;;;;;;;6.88;1.67;;;25.00;99.90;;;;;;4954503;29;20047;-78
2023/08/13 11:07:00;;;;;;;4.68;1.92;;;24.80;99.90;;;;;;4964438;28;20074;-78
2023/08/13 11:09:34;;;;;;;5.40;2.00;;;24.70;99.90;;;;;;4953181;28;20027;-79
2023/08/13 11:12:06;;;;;;;6.68;2.13;;;24.50;99.90;;;;;;4961694;28;20042;-78
2023/08/13 11:14:45;;;;;;;7.18;1.90;;;24.40;99.90;;;;;;4962183;28;20038;-78
2023/08/13 11:17:30;;;;;;;7.13;2.20;;;24.40;99.90;;;;;;4961759;28;20046;-80
2023/08/13 11:20:11;;;;;;;7.13;2.33;;;24.60;99.90;;;;;;4986284;28;20046;-78
2023/08/13 11:23:09;;;;;;;6.00;2.22;;;24.70;99.90;;;;;;4961694;28;20053;-79
2023/08/13 11:25:48;;;;;;;8.85;2.30;;;24.40;99.90;;;;;;4977714;28;20050;-78
2023/08/13 11:28:23;;;;;;;7.70;2.40;;;24.10;99.90;;;;;;4961346;28;20061;-78
2023/08/13 11:30:52;;;;;;;6.60;2.30;;;23.90;99.90;;;;;;4961950;28;20047;-78
2023/08/13 11:33:26;;;;;;;10.02;3.03;;;23.70;99.90;;;;;;4956918;28;20133;-78
2023/08/13 11:35:59;;;;;;;11.23;3.05;;;23.40;99.90;;;;;;4960837;28;20046;-78
2023/08/13 11:38:28;;;;;;;8.82;2.75;;;23.20;99.90;;;;;;4961589;28;20038;-78
2023/08/13 11:41:21;;;;;;;8.15;2.70;;;23.00;99.90;;;;;;4962002;28;20042;-78
2023/08/13 11:44:13;;;;;;;6.55;2.60;;;22.90;99.90;;;;;;4977212;28;20552;-78
2023/08/13 11:47:06;;;;;;;5.93;2.50;;;22.60;99.90;;;;;;4980447;28;20046;-78
2023/08/13 11:49:45;;;;;;;6.80;2.90;;;22.50;99.90;;;;;;4971902;28;20038;-78
2023/08/13 11:52:20;;;;;;;7.75;2.70;;;22.40;99.90;;;;;;4958726;28;20073;-78
2023/08/13 11:54:52;;;;;;;10.30;3.20;;;22.30;99.90;;;;;;4948934;28;20038;-78
2023/08/13 11:57:45;;;;;;;8.25;2.65;;;22.30;99.90;;;;;;4932094;28;20082;-78
2023/08/13 12:00:25;;;;;;;8.68;2.70;;;22.40;99.90;;;;;;4963600;28;20054;-78
2023/08/13 12:03:05;;;;;;;6.85;2.75;;;22.60;99.90;;;;;;4957180;28;20041;-80
2023/08/13 12:05:58;;;;;;;;;;;22.80;99.90;;;;;;4955388;28;20082;-78
2023/08/13 12:08:30;;;;;;;8.05;2.92;;;22.90;99.90;;;;;;4960179;28;20698;-77
2023/08/13 12:11:10;;;;;;;6.55;2.70;;;23.20;99.90;;;;;;4952502;28;20118;-79
2023/08/13 12:13:45;;;;;;;9.10;2.90;;;23.30;99.90;;;;;;4940058;28;20035;-80
2023/08/13 12:16:16;;;;;;;6.70;2.60;;;23.40;99.90;;;;;;4963882;28;20053;-77
2023/08/13 12:18:50;;;;;;;9.23;2.70;;;23.40;99.90;;;;;;4957425;28;20427;-78
2023/08/13 12:21:18;;;;;;;8.45;2.75;;;23.60;99.90;;;;;;4954840;28;20047;-78
2023/08/13 12:23:47;;;;;;;7.60;2.53;;;23.60;99.90;;;;;;4969521;28;20050;-78
2023/08/13 12:26:19;;;;;;;9.98;2.80;;;23.60;99.90;;;;;;4939984;28;20046;-78
2023/08/13 12:28:56;;;;;;;7.47;2.55;;;23.60;99.90;;;;;;4939183;28;20043;-79
2023/08/13 12:31:34;;;;;;;8.85;3.00;;;23.70;99.90;;;;;;4954305;28;20039;-78
2023/08/13 12:34:05;;;;;;;7.13;2.60;;;23.70;99.90;;;;;;4936912;28;20082;-79
2023/08/13 12:36:31;;;;;;;6.18;2.65;;;23.90;99.90;;;;;;4938521;28;20073;-79
2023/08/13 12:38:57;;;;;;;6.90;2.58;;;24.00;99.90;;;;;;4954976;28;20454;-79
2023/08/13 12:41:28;;;;;;;7.40;3.00;;;24.10;99.90;;;;;;4938078;28;20038;-78
2023/08/13 12:43:56;;;;;;;6.68;2.70;;;24.10;99.90;;;;;;4934600;28;20493;-78
2023/08/13 12:46:21;;;;;;;8.10;2.60;;;24.20;99.90;;;;;;4954212;28;20047;-78
2023/08/13 12:48:50;;;;;;;10.70;2.72;;;24.10;99.90;;;;;;4954817;28;20035;-78
2023/08/13 12:51:18;;;;;;;7.43;2.70;;;24.20;99.90;;;;;;4953774;28;20130;-79
2023/08/13 12:53:44;;;;;;;9.27;2.55;;;24.30;99.90;;;;;;4956872;28;20034;-79
2023/08/13 12:56:13;;;;;;;7.05;2.50;;;24.40;99.90;;;;;;4942348;28;20041;-78
2023/08/13 12:58:44;;;;;;;6.35;2.50;;;24.30;99.90;;;;;;4959447;28;20078;-78